sensor_id;sensor_type;location;lat;lon;timestamp;P1;durP1;ratioP1;P2;durP2;ratioP2
33714;SDS011;20043;50.998;4.754;2023-12-28T00:00:38;3.83;;;2.40;;
33714;SDS011;20043;50.998;4.754;2023-12-28T00:03:03;4.38;;;2.20;;
33714;SDS011;20043;50.998;4.754;2023-12-28T00:05:29;6.05;;;2.85;;
33714;SDS011;20043;50.998;4.754;2023-12-28T00:07:55;8.30;;;2.53;;
33714;SDS011;20043;50.998;4.754;2023-12-28T00:10:23;5.40;;;2.20;;
33714;SDS011;20043;50.998;4.754;2023-12-28T00:12:49;5.38;;;2.45;;
33714;SDS011;20043;50.998;4.754;2023-12-28T00:15:15;4.57;;;2.42;;
33714;SDS011;20043;50.998;4.754;2023-12-28T00:17:41;6.30;;;2.38;;
33714;SDS011;20043;50.998;4.754;2023-12-28T00:20:06;8.77;;;2.80;;
33714;SDS011;20043;50.998;4.754;2023-12-28T00:22:32;4.47;;;2.42;;
33714;SDS011;20043;50.998;4.754;2023-12-28T00:24:58;4.10;;;2.05;;
33714;SDS011;20043;50.998;4.754;2023-12-28T00:27:23;6.20;;;2.22;;
33714;SDS011;20043;50.998;4.754;2023-12-28T00:29:49;4.45;;;2.50;;
33714;SDS011;20043;50.998;4.754;2023-12-28T00:32:15;6.50;;;2.28;;
33714;SDS011;20043;50.998;4.754;2023-12-28T00:34:41;7.15;;;2.55;;
33714;SDS011;20043;50.998;4.754;2023-12-28T00:37:06;6.97;;;2.28;;
33714;SDS011;20043;50.998;4.754;2023-12-28T00:39:38;6.88;;;2.78;;
33714;SDS011;20043;50.998;4.754;2023-12-28T00:42:05;6.15;;;2.22;;
33714;SDS011;20043;50.998;4.754;2023-12-28T00:44:31;7.10;;;2.35;;
33714;SDS011;20043;50.998;4.754;2023-12-28T00:46:57;4.22;;;2.17;;
33714;SDS011;20043;50.998;4.754;2023-12-28T00:49:22;5.93;;;2.30;;
33714;SDS011;20043;50.998;4.754;2023-12-28T00:51:48;6.35;;;3.58;;
33714;SDS011;20043;50.998;4.754;2023-12-28T00:54:14;12.65;;;4.97;;
33714;SDS011;20043;50.998;4.754;2023-12-28T00:56:39;9.32;;;5.60;;
33714;SDS011;20043;50.998;4.754;2023-12-28T00:59:05;7.50;;;3.22;;
33714;SDS011;20043;50.998;4.754;2023-12-28T01:01:30;5.18;;;2.50;;
33714;SDS011;20043;50.998;4.754;2023-12-28T01:03:56;6.63;;;2.50;;
33714;SDS011;20043;50.998;4.754;2023-12-28T01:06:22;7.45;;;2.60;;
33714;SDS011;20043;50.998;4.754;2023-12-28T01:08:52;7.10;;;2.20;;
33714;SDS011;20043;50.998;4.754;2023-12-28T01:11:18;6.30;;;2.33;;
33714;SDS011;20043;50.998;4.754;2023-12-28T01:13:43;6.10;;;2.55;;
33714;SDS011;20043;50.998;4.754;2023-12-28T01:16:09;6.10;;;2.38;;
33714;SDS011;20043;50.998;4.754;2023-12-28T01:18:37;6.13;;;2.33;;
33714;SDS011;20043;50.998;4.754;2023-12-28T01:21:03;8.50;;;2.45;;
33714;SDS011;20043;50.998;4.754;2023-12-28T01:23:29;5.90;;;2.38;;
33714;SDS011;20043;50.998;4.754;2023-12-28T01:25:55;8.18;;;2.40;;
33714;SDS011;20043;50.998;4.754;2023-12-28T01:28:21;6.30;;;2.33;;
33714;SDS011;20043;50.998;4.754;2023-12-28T01:30:47;7.95;;;2.40;;
33714;SDS011;20043;50.998;4.754;2023-12-28T01:33:12;4.35;;;2.22;;
33714;SDS011;20043;50.998;4.754;2023-12-28T01:35:38;7.55;;;2.67;;
33714;SDS011;20043;50.998;4.754;2023-12-28T01:38:04;9.07;;;2.70;;
33714;SDS011;20043;50.998;4.754;2023-12-28T01:40:30;5.13;;;2.30;;
33714;SDS011;20043;50.998;4.754;2023-12-28T01:42:55;4.38;;;2.20;;
33714;SDS011;20043;50.998;4.754;2023-12-28T01:45:21;4.85;;;2.35;;
33714;SDS011;20043;50.998;4.754;2023-12-28T01:47:47;4.38;;;2.00;;
33714;SDS011;20043;50.998;4.754;2023-12-28T01:50:14;6.57;;;2.42;;
33714;SDS011;20043;50.998;4.754;2023-12-28T01:52:40;8.38;;;2.20;;
33714;SDS011;20043;50.998;4.754;2023-12-28T01:55:06;5.75;;;2.20;;
33714;SDS011;20043;50.998;4.754;2023-12-28T01:57:33;6.63;;;2.10;;
33714;SDS011;20043;50.998;4.754;2023-12-28T01:59:59;6.88;;;2.22;;
33714;SDS011;20043;50.998;4.754;2023-12-28T02:02:26;6.03;;;2.03;;
33714;SDS011;20043;50.998;4.754;2023-12-28T02:04:52;6.68;;;2.03;;
33714;SDS011;20043;50.998;4.754;2023-12-28T02:07:20;6.82;;;2.15;;
33714;SDS011;20043;50.998;4.754;2023-12-28T02:09:46;6.70;;;2.70;;
33714;SDS011;20043;50.998;4.754;2023-12-28T02:12:12;6.05;;;2.38;;
33714;SDS011;20043;50.998;4.754;2023-12-28T02:14:38;6.38;;;2.20;;
33714;SDS011;20043;50.998;4.754;2023-12-28T02:17:06;8.32;;;2.20;;
33714;SDS011;20043;50.998;4.754;2023-12-28T02:22:05;6.38;;;2.67;;
33714;SDS011;20043;50.998;4.754;2023-12-28T02:24:32;6.32;;;2.08;;
33714;SDS011;20043;50.998;4.754;2023-12-28T02:26:57;6.70;;;1.95;;
33714;SDS011;20043;50.998;4.754;2023-12-28T02:29:23;6.97;;;2.20;;
33714;SDS011;20043;50.998;4.754;2023-12-28T02:31:51;4.43;;;2.22;;
33714;SDS011;20043;50.998;4.754;2023-12-28T02:34:32;7.32;;;2.63;;
33714;SDS011;20043;50.998;4.754;2023-12-28T02:37:02;9.20;;;2.42;;
33714;SDS011;20043;50.998;4.754;2023-12-28T02:39:29;6.82;;;2.42;;
33714;SDS011;20043;50.998;4.754;2023-12-28T02:41:55;7.60;;;2.50;;
33714;SDS011;20043;50.998;4.754;2023-12-28T02:44:21;8.65;;;2.30;;
33714;SDS011;20043;50.998;4.754;2023-12-28T02:46:47;7.03;;;2.72;;
33714;SDS011;20043;50.998;4.754;2023-12-28T02:49:12;7.55;;;2.30;;
33714;SDS011;20043;50.998;4.754;2023-12-28T02:51:40;5.60;;;2.00;;
33714;SDS011;20043;50.998;4.754;2023-12-28T02:54:07;6.63;;;2.33;;
33714;SDS011;20043;50.998;4.754;2023-12-28T02:56:33;5.25;;;2.20;;
33714;SDS011;20043;50.998;4.754;2023-12-28T02:58:59;7.40;;;2.17;;
33714;SDS011;20043;50.998;4.754;2023-12-28T03:01:25;6.65;;;1.92;;
33714;SDS011;20043;50.998;4.754;2023-12-28T03:03:51;10.38;;;1.95;;
33714;SDS011;20043;50.998;4.754;2023-12-28T03:06:16;8.10;;;2.55;;
33714;SDS011;20043;50.998;4.754;2023-12-28T03:08:42;8.82;;;2.17;;
33714;SDS011;20043;50.998;4.754;2023-12-28T03:11:07;7.07;;;2.05;;
33714;SDS011;20043;50.998;4.754;2023-12-28T03:13:33;8.30;;;2.40;;
33714;SDS011;20043;50.998;4.754;2023-12-28T03:15:59;8.02;;;2.63;;
33714;SDS011;20043;50.998;4.754;2023-12-28T03:18:24;8.20;;;1.85;;
33714;SDS011;20043;50.998;4.754;2023-12-28T03:20:50;7.72;;;2.20;;
33714;SDS011;20043;50.998;4.754;2023-12-28T03:23:15;7.38;;;2.30;;
33714;SDS011;20043;50.998;4.754;2023-12-28T03:25:41;6.55;;;2.13;;
33714;SDS011;20043;50.998;4.754;2023-12-28T03:28:06;5.15;;;1.90;;
33714;SDS011;20043;50.998;4.754;2023-12-28T03:30:32;7.75;;;2.20;;
33714;SDS011;20043;50.998;4.754;2023-12-28T03:32:58;12.07;;;2.50;;
33714;SDS011;20043;50.998;4.754;2023-12-28T03:35:23;11.38;;;2.65;;
33714;SDS011;20043;50.998;4.754;2023-12-28T03:37:49;8.98;;;2.20;;
33714;SDS011;20043;50.998;4.754;2023-12-28T03:40:14;5.50;;;1.83;;
33714;SDS011;20043;50.998;4.754;2023-12-28T03:42:40;9.68;;;2.03;;
33714;SDS011;20043;50.998;4.754;2023-12-28T03:45:06;12.45;;;2.50;;
33714;SDS011;20043;50.998;4.754;2023-12-28T03:47:32;10.57;;;2.45;;
33714;SDS011;20043;50.998;4.754;2023-12-28T03:49:58;9.05;;;2.03;;
33714;SDS011;20043;50.998;4.754;2023-12-28T03:52:26;9.90;;;2.03;;
33714;SDS011;20043;50.998;4.754;2023-12-28T03:54:55;9.63;;;2.00;;
33714;SDS011;20043;50.998;4.754;2023-12-28T03:57:20;9.77;;;2.20;;
33714;SDS011;20043;50.998;4.754;2023-12-28T03:59:46;9.05;;;2.17;;
33714;SDS011;20043;50.998;4.754;2023-12-28T04:02:12;13.38;;;2.28;;
33714;SDS011;20043;50.998;4.754;2023-12-28T04:04:38;11.00;;;2.05;;
33714;SDS011;20043;50.998;4.754;2023-12-28T04:07:04;10.77;;;2.30;;
33714;SDS011;20043;50.998;4.754;2023-12-28T04:09:32;13.70;;;2.42;;
33714;SDS011;20043;50.998;4.754;2023-12-28T04:11:58;7.43;;;2.20;;
33714;SDS011;20043;50.998;4.754;2023-12-28T04:14:23;11.50;;;2.72;;
33714;SDS011;20043;50.998;4.754;2023-12-28T04:16:49;10.65;;;2.05;;
33714;SDS011;20043;50.998;4.754;2023-12-28T04:19:15;10.13;;;2.58;;
33714;SDS011;20043;50.998;4.754;2023-12-28T04:21:42;14.23;;;2.35;;
33714;SDS011;20043;50.998;4.754;2023-12-28T04:24:09;15.43;;;2.97;;
33714;SDS011;20043;50.998;4.754;2023-12-28T04:26:34;12.95;;;2.40;;
33714;SDS011;20043;50.998;4.754;2023-12-28T04:29:00;13.75;;;2.65;;
33714;SDS011;20043;50.998;4.754;2023-12-28T04:31:26;17.50;;;2.70;;
33714;SDS011;20043;50.998;4.754;2023-12-28T04:33:52;10.77;;;2.17;;
33714;SDS011;20043;50.998;4.754;2023-12-28T04:36:17;13.52;;;2.53;;
33714;SDS011;20043;50.998;4.754;2023-12-28T04:38:43;12.88;;;3.13;;
33714;SDS011;20043;50.998;4.754;2023-12-28T04:41:09;14.98;;;3.55;;
33714;SDS011;20043;50.998;4.754;2023-12-28T04:43:35;10.07;;;2.50;;
33714;SDS011;20043;50.998;4.754;2023-12-28T04:46:03;13.52;;;2.47;;
33714;SDS011;20043;50.998;4.754;2023-12-28T04:48:30;12.68;;;2.63;;
33714;SDS011;20043;50.998;4.754;2023-12-28T04:50:56;15.38;;;2.35;;
33714;SDS011;20043;50.998;4.754;2023-12-28T04:53:21;10.90;;;2.20;;
33714;SDS011;20043;50.998;4.754;2023-12-28T04:55:47;18.05;;;3.08;;
33714;SDS011;20043;50.998;4.754;2023-12-28T04:58:13;18.38;;;2.92;;
33714;SDS011;20043;50.998;4.754;2023-12-28T05:00:39;18.98;;;3.53;;
33714;SDS011;20043;50.998;4.754;2023-12-28T05:03:04;23.80;;;3.42;;
33714;SDS011;20043;50.998;4.754;2023-12-28T05:05:31;19.17;;;2.97;;
33714;SDS011;20043;50.998;4.754;2023-12-28T05:07:57;17.05;;;3.05;;
33714;SDS011;20043;50.998;4.754;2023-12-28T05:10:23;14.55;;;2.88;;
33714;SDS011;20043;50.998;4.754;2023-12-28T05:12:48;13.68;;;2.97;;
33714;SDS011;20043;50.998;4.754;2023-12-28T05:15:14;15.88;;;2.85;;
33714;SDS011;20043;50.998;4.754;2023-12-28T05:17:40;17.48;;;3.83;;
33714;SDS011;20043;50.998;4.754;2023-12-28T05:20:06;13.45;;;3.47;;
33714;SDS011;20043;50.998;4.754;2023-12-28T05:22:32;12.65;;;3.03;;
33714;SDS011;20043;50.998;4.754;2023-12-28T05:24:58;13.55;;;2.70;;
33714;SDS011;20043;50.998;4.754;2023-12-28T05:27:24;19.70;;;3.05;;
33714;SDS011;20043;50.998;4.754;2023-12-28T05:29:49;19.05;;;3.55;;
33714;SDS011;20043;50.998;4.754;2023-12-28T05:32:15;13.85;;;2.83;;
33714;SDS011;20043;50.998;4.754;2023-12-28T05:34:41;19.92;;;2.92;;
33714;SDS011;20043;50.998;4.754;2023-12-28T05:37:06;17.05;;;2.80;;
33714;SDS011;20043;50.998;4.754;2023-12-28T05:39:32;15.73;;;3.20;;
33714;SDS011;20043;50.998;4.754;2023-12-28T05:41:57;15.43;;;3.42;;
33714;SDS011;20043;50.998;4.754;2023-12-28T05:44:23;22.25;;;3.35;;
33714;SDS011;20043;50.998;4.754;2023-12-28T05:46:49;13.65;;;3.00;;
33714;SDS011;20043;50.998;4.754;2023-12-28T05:49:14;15.98;;;2.70;;
33714;SDS011;20043;50.998;4.754;2023-12-28T05:51:40;14.73;;;2.88;;
33714;SDS011;20043;50.998;4.754;2023-12-28T05:54:13;17.80;;;3.03;;
33714;SDS011;20043;50.998;4.754;2023-12-28T05:56:39;17.67;;;2.92;;
33714;SDS011;20043;50.998;4.754;2023-12-28T05:59:05;18.25;;;3.30;;
33714;SDS011;20043;50.998;4.754;2023-12-28T06:01:41;20.77;;;3.50;;
33714;SDS011;20043;50.998;4.754;2023-12-28T06:04:08;23.38;;;3.42;;
33714;SDS011;20043;50.998;4.754;2023-12-28T06:06:33;17.95;;;3.45;;
33714;SDS011;20043;50.998;4.754;2023-12-28T06:08:59;18.08;;;2.92;;
33714;SDS011;20043;50.998;4.754;2023-12-28T06:11:25;21.80;;;3.75;;
33714;SDS011;20043;50.998;4.754;2023-12-28T06:13:50;19.00;;;3.25;;
33714;SDS011;20043;50.998;4.754;2023-12-28T06:16:16;18.55;;;3.17;;
33714;SDS011;20043;50.998;4.754;2023-12-28T06:18:41;14.68;;;2.70;;
33714;SDS011;20043;50.998;4.754;2023-12-28T06:21:10;15.82;;;3.63;;
33714;SDS011;20043;50.998;4.754;2023-12-28T06:23:36;22.10;;;3.97;;
33714;SDS011;20043;50.998;4.754;2023-12-28T06:26:05;14.35;;;3.20;;
33714;SDS011;20043;50.998;4.754;2023-12-28T06:28:31;19.20;;;3.15;;
33714;SDS011;20043;50.998;4.754;2023-12-28T06:30:57;18.40;;;3.67;;
33714;SDS011;20043;50.998;4.754;2023-12-28T06:33:26;17.58;;;3.40;;
33714;SDS011;20043;50.998;4.754;2023-12-28T06:35:53;19.83;;;3.35;;
33714;SDS011;20043;50.998;4.754;2023-12-28T06:38:18;23.77;;;4.57;;
33714;SDS011;20043;50.998;4.754;2023-12-28T06:40:44;24.10;;;4.25;;
33714;SDS011;20043;50.998;4.754;2023-12-28T06:43:09;19.42;;;3.47;;
33714;SDS011;20043;50.998;4.754;2023-12-28T06:45:35;22.73;;;3.75;;
33714;SDS011;20043;50.998;4.754;2023-12-28T06:48:00;20.98;;;3.63;;
33714;SDS011;20043;50.998;4.754;2023-12-28T06:50:26;20.65;;;3.85;;
33714;SDS011;20043;50.998;4.754;2023-12-28T06:52:52;21.15;;;2.97;;
33714;SDS011;20043;50.998;4.754;2023-12-28T06:55:18;20.30;;;3.55;;
33714;SDS011;20043;50.998;4.754;2023-12-28T06:57:43;25.13;;;3.75;;
33714;SDS011;20043;50.998;4.754;2023-12-28T07:00:09;25.45;;;3.63;;
33714;SDS011;20043;50.998;4.754;2023-12-28T07:02:42;22.85;;;3.35;;
33714;SDS011;20043;50.998;4.754;2023-12-28T07:05:07;18.98;;;3.67;;
33714;SDS011;20043;50.998;4.754;2023-12-28T07:07:33;19.45;;;3.33;;
33714;SDS011;20043;50.998;4.754;2023-12-28T07:09:58;20.40;;;3.75;;
33714;SDS011;20043;50.998;4.754;2023-12-28T07:12:24;22.77;;;3.58;;
33714;SDS011;20043;50.998;4.754;2023-12-28T07:14:50;21.13;;;3.40;;
33714;SDS011;20043;50.998;4.754;2023-12-28T07:17:15;18.80;;;3.55;;
33714;SDS011;20043;50.998;4.754;2023-12-28T07:19:42;20.30;;;3.35;;
33714;SDS011;20043;50.998;4.754;2023-12-28T07:22:08;24.30;;;3.67;;
33714;SDS011;20043;50.998;4.754;2023-12-28T07:24:34;25.52;;;4.45;;
33714;SDS011;20043;50.998;4.754;2023-12-28T07:26:59;23.02;;;3.72;;
33714;SDS011;20043;50.998;4.754;2023-12-28T07:29:25;19.77;;;3.50;;
33714;SDS011;20043;50.998;4.754;2023-12-28T07:31:50;23.33;;;3.95;;
33714;SDS011;20043;50.998;4.754;2023-12-28T07:34:16;22.08;;;4.05;;
33714;SDS011;20043;50.998;4.754;2023-12-28T07:36:42;23.75;;;4.15;;
33714;SDS011;20043;50.998;4.754;2023-12-28T07:39:08;19.38;;;3.72;;
33714;SDS011;20043;50.998;4.754;2023-12-28T07:41:34;20.50;;;3.53;;
33714;SDS011;20043;50.998;4.754;2023-12-28T07:44:00;20.27;;;4.00;;
33714;SDS011;20043;50.998;4.754;2023-12-28T07:46:25;28.40;;;4.82;;
33714;SDS011;20043;50.998;4.754;2023-12-28T07:48:52;20.85;;;3.90;;
33714;SDS011;20043;50.998;4.754;2023-12-28T07:51:17;16.40;;;3.42;;
33714;SDS011;20043;50.998;4.754;2023-12-28T07:53:43;27.17;;;4.55;;
33714;SDS011;20043;50.998;4.754;2023-12-28T07:56:08;22.77;;;4.18;;
33714;SDS011;20043;50.998;4.754;2023-12-28T07:58:34;24.45;;;4.88;;
33714;SDS011;20043;50.998;4.754;2023-12-28T08:01:02;22.08;;;3.67;;
33714;SDS011;20043;50.998;4.754;2023-12-28T08:03:28;25.95;;;4.03;;
33714;SDS011;20043;50.998;4.754;2023-12-28T08:05:53;21.63;;;3.88;;
33714;SDS011;20043;50.998;4.754;2023-12-28T08:08:19;23.95;;;4.10;;
33714;SDS011;20043;50.998;4.754;2023-12-28T08:10:45;26.58;;;4.85;;
33714;SDS011;20043;50.998;4.754;2023-12-28T08:13:10;17.67;;;4.28;;
33714;SDS011;20043;50.998;4.754;2023-12-28T08:15:36;25.05;;;4.72;;
33714;SDS011;20043;50.998;4.754;2023-12-28T08:18:02;34.08;;;4.75;;
33714;SDS011;20043;50.998;4.754;2023-12-28T08:20:27;25.60;;;3.58;;
33714;SDS011;20043;50.998;4.754;2023-12-28T08:22:53;21.15;;;4.05;;
33714;SDS011;20043;50.998;4.754;2023-12-28T08:25:19;19.95;;;3.75;;
33714;SDS011;20043;50.998;4.754;2023-12-28T08:27:44;22.08;;;3.35;;
33714;SDS011;20043;50.998;4.754;2023-12-28T08:30:10;25.52;;;3.50;;
33714;SDS011;20043;50.998;4.754;2023-12-28T08:32:36;25.52;;;3.75;;
33714;SDS011;20043;50.998;4.754;2023-12-28T08:35:01;21.02;;;4.22;;
33714;SDS011;20043;50.998;4.754;2023-12-28T08:37:27;21.67;;;4.10;;
33714;SDS011;20043;50.998;4.754;2023-12-28T08:39:53;23.88;;;3.78;;
33714;SDS011;20043;50.998;4.754;2023-12-28T08:42:20;23.42;;;3.83;;
33714;SDS011;20043;50.998;4.754;2023-12-28T08:44:46;25.48;;;3.70;;
33714;SDS011;20043;50.998;4.754;2023-12-28T08:47:11;21.63;;;3.97;;
33714;SDS011;20043;50.998;4.754;2023-12-28T08:49:37;20.27;;;3.15;;
33714;SDS011;20043;50.998;4.754;2023-12-28T08:52:02;19.42;;;2.83;;
33714;SDS011;20043;50.998;4.754;2023-12-28T08:54:28;21.45;;;3.88;;
33714;SDS011;20043;50.998;4.754;2023-12-28T08:56:54;19.17;;;3.70;;
33714;SDS011;20043;50.998;4.754;2023-12-28T08:59:19;22.45;;;3.75;;
33714;SDS011;20043;50.998;4.754;2023-12-28T09:01:45;20.50;;;4.13;;
33714;SDS011;20043;50.998;4.754;2023-12-28T09:04:10;22.45;;;3.70;;
33714;SDS011;20043;50.998;4.754;2023-12-28T09:06:36;18.23;;;3.35;;
33714;SDS011;20043;50.998;4.754;2023-12-28T09:09:02;26.05;;;3.85;;
33714;SDS011;20043;50.998;4.754;2023-12-28T09:11:28;17.30;;;3.33;;
33714;SDS011;20043;50.998;4.754;2023-12-28T09:13:54;23.02;;;4.05;;
33714;SDS011;20043;50.998;4.754;2023-12-28T09:16:20;25.98;;;3.40;;
33714;SDS011;20043;50.998;4.754;2023-12-28T09:18:46;20.02;;;3.42;;
33714;SDS011;20043;50.998;4.754;2023-12-28T09:21:11;20.20;;;4.00;;
33714;SDS011;20043;50.998;4.754;2023-12-28T09:23:37;19.90;;;3.53;;
33714;SDS011;20043;50.998;4.754;2023-12-28T09:26:03;28.15;;;4.07;;
33714;SDS011;20043;50.998;4.754;2023-12-28T09:28:30;27.58;;;6.20;;
33714;SDS011;20043;50.998;4.754;2023-12-28T09:30:56;22.77;;;4.28;;
33714;SDS011;20043;50.998;4.754;2023-12-28T09:33:22;19.67;;;3.63;;
33714;SDS011;20043;50.998;4.754;2023-12-28T09:35:48;21.05;;;3.67;;
33714;SDS011;20043;50.998;4.754;2023-12-28T09:38:14;23.92;;;3.60;;
33714;SDS011;20043;50.998;4.754;2023-12-28T09:40:43;17.52;;;3.47;;
33714;SDS011;20043;50.998;4.754;2023-12-28T09:43:17;24.48;;;4.25;;
33714;SDS011;20043;50.998;4.754;2023-12-28T09:45:50;22.65;;;3.65;;
33714;SDS011;20043;50.998;4.754;2023-12-28T09:48:16;26.02;;;4.38;;
33714;SDS011;20043;50.998;4.754;2023-12-28T09:50:44;28.42;;;4.10;;
33714;SDS011;20043;50.998;4.754;2023-12-28T09:53:25;18.15;;;3.67;;
33714;SDS011;20043;50.998;4.754;2023-12-28T09:55:51;18.90;;;3.30;;
33714;SDS011;20043;50.998;4.754;2023-12-28T09:58:18;20.25;;;3.92;;
33714;SDS011;20043;50.998;4.754;2023-12-28T10:00:45;23.60;;;3.97;;
33714;SDS011;20043;50.998;4.754;2023-12-28T10:03:14;21.38;;;3.53;;
33714;SDS011;20043;50.998;4.754;2023-12-28T10:05:41;21.98;;;3.45;;
33714;SDS011;20043;50.998;4.754;2023-12-28T10:08:07;23.13;;;4.43;;
33714;SDS011;20043;50.998;4.754;2023-12-28T10:10:33;25.33;;;4.50;;
33714;SDS011;20043;50.998;4.754;2023-12-28T10:12:59;22.38;;;4.65;;
33714;SDS011;20043;50.998;4.754;2023-12-28T10:15:25;23.30;;;4.10;;
33714;SDS011;20043;50.998;4.754;2023-12-28T10:17:51;26.50;;;3.85;;
33714;SDS011;20043;50.998;4.754;2023-12-28T10:20:17;22.60;;;4.45;;
33714;SDS011;20043;50.998;4.754;2023-12-28T10:22:43;25.25;;;4.35;;
33714;SDS011;20043;50.998;4.754;2023-12-28T10:25:09;27.83;;;4.22;;
33714;SDS011;20043;50.998;4.754;2023-12-28T10:27:41;26.80;;;4.20;;
33714;SDS011;20043;50.998;4.754;2023-12-28T10:30:08;31.60;;;4.07;;
33714;SDS011;20043;50.998;4.754;2023-12-28T10:32:40;25.67;;;3.78;;
33714;SDS011;20043;50.998;4.754;2023-12-28T10:35:06;22.30;;;3.70;;
33714;SDS011;20043;50.998;4.754;2023-12-28T10:37:32;24.05;;;4.47;;
33714;SDS011;20043;50.998;4.754;2023-12-28T10:40:00;24.20;;;4.22;;
33714;SDS011;20043;50.998;4.754;2023-12-28T10:42:37;25.10;;;3.95;;
33714;SDS011;20043;50.998;4.754;2023-12-28T10:45:09;26.70;;;5.22;;
33714;SDS011;20043;50.998;4.754;2023-12-28T10:47:42;20.10;;;4.15;;
33714;SDS011;20043;50.998;4.754;2023-12-28T10:50:10;29.60;;;3.70;;
33714;SDS011;20043;50.998;4.754;2023-12-28T10:52:37;22.20;;;3.65;;
33714;SDS011;20043;50.998;4.754;2023-12-28T11:00:39;27.40;;;3.85;;
33714;SDS011;20043;50.998;4.754;2023-12-28T11:03:11;30.33;;;4.85;;
33714;SDS011;20043;50.998;4.754;2023-12-28T11:05:45;26.90;;;4.55;;
33714;SDS011;20043;50.998;4.754;2023-12-28T11:08:12;28.05;;;4.90;;
33714;SDS011;20043;50.998;4.754;2023-12-28T11:10:39;22.52;;;4.00;;
33714;SDS011;20043;50.998;4.754;2023-12-28T11:13:06;23.27;;;4.43;;
33714;SDS011;20043;50.998;4.754;2023-12-28T11:15:34;27.38;;;4.28;;
33714;SDS011;20043;50.998;4.754;2023-12-28T11:18:01;23.90;;;4.03;;
33714;SDS011;20043;50.998;4.754;2023-12-28T11:20:27;20.85;;;3.75;;
33714;SDS011;20043;50.998;4.754;2023-12-28T11:22:54;28.92;;;5.13;;
33714;SDS011;20043;50.998;4.754;2023-12-28T11:25:20;29.48;;;4.55;;
33714;SDS011;20043;50.998;4.754;2023-12-28T11:27:46;28.23;;;8.50;;
33714;SDS011;20043;50.998;4.754;2023-12-28T11:30:12;24.92;;;3.85;;
33714;SDS011;20043;50.998;4.754;2023-12-28T11:32:40;26.98;;;5.07;;
33714;SDS011;20043;50.998;4.754;2023-12-28T11:35:12;25.20;;;4.55;;
33714;SDS011;20043;50.998;4.754;2023-12-28T11:37:46;23.08;;;4.63;;
33714;SDS011;20043;50.998;4.754;2023-12-28T11:40:16;28.35;;;4.32;;
33714;SDS011;20043;50.998;4.754;2023-12-28T11:42:50;21.25;;;4.18;;
33714;SDS011;20043;50.998;4.754;2023-12-28T11:45:20;30.30;;;4.80;;
33714;SDS011;20043;50.998;4.754;2023-12-28T11:47:57;26.52;;;4.32;;
33714;SDS011;20043;50.998;4.754;2023-12-28T11:50:27;32.80;;;4.65;;
33714;SDS011;20043;50.998;4.754;2023-12-28T11:52:52;27.90;;;3.65;;
33714;SDS011;20043;50.998;4.754;2023-12-28T11:55:22;27.58;;;4.63;;
33714;SDS011;20043;50.998;4.754;2023-12-28T11:57:48;29.40;;;5.20;;
33714;SDS011;20043;50.998;4.754;2023-12-28T12:00:14;26.70;;;4.32;;
33714;SDS011;20043;50.998;4.754;2023-12-28T12:02:43;25.42;;;4.32;;
33714;SDS011;20043;50.998;4.754;2023-12-28T12:05:12;28.05;;;4.40;;
33714;SDS011;20043;50.998;4.754;2023-12-28T12:07:39;23.35;;;3.65;;
33714;SDS011;20043;50.998;4.754;2023-12-28T12:10:05;32.70;;;4.65;;
33714;SDS011;20043;50.998;4.754;2023-12-28T12:12:31;21.90;;;4.13;;
33714;SDS011;20043;50.998;4.754;2023-12-28T12:14:57;29.88;;;4.72;;
33714;SDS011;20043;50.998;4.754;2023-12-28T12:17:23;22.15;;;4.18;;
33714;SDS011;20043;50.998;4.754;2023-12-28T12:19:49;16.02;;;3.55;;
33714;SDS011;20043;50.998;4.754;2023-12-28T12:22:20;26.65;;;4.15;;
33714;SDS011;20043;50.998;4.754;2023-12-28T12:24:46;27.00;;;4.25;;
33714;SDS011;20043;50.998;4.754;2023-12-28T12:27:13;19.90;;;4.20;;
33714;SDS011;20043;50.998;4.754;2023-12-28T12:29:39;22.15;;;4.30;;
33714;SDS011;20043;50.998;4.754;2023-12-28T12:32:05;34.50;;;5.28;;
33714;SDS011;20043;50.998;4.754;2023-12-28T12:34:32;26.13;;;4.18;;
33714;SDS011;20043;50.998;4.754;2023-12-28T12:36:58;24.85;;;3.95;;
33714;SDS011;20043;50.998;4.754;2023-12-28T12:39:24;27.80;;;4.55;;
33714;SDS011;20043;50.998;4.754;2023-12-28T12:41:49;26.95;;;4.07;;
33714;SDS011;20043;50.998;4.754;2023-12-28T12:44:16;22.08;;;3.78;;
33714;SDS011;20043;50.998;4.754;2023-12-28T12:46:44;21.98;;;4.15;;
33714;SDS011;20043;50.998;4.754;2023-12-28T12:49:09;28.48;;;4.97;;
33714;SDS011;20043;50.998;4.754;2023-12-28T12:51:35;23.70;;;3.67;;
33714;SDS011;20043;50.998;4.754;2023-12-28T12:54:02;26.73;;;3.58;;
33714;SDS011;20043;50.998;4.754;2023-12-28T12:56:28;24.17;;;3.92;;
33714;SDS011;20043;50.998;4.754;2023-12-28T12:58:55;38.55;;;4.95;;
33714;SDS011;20043;50.998;4.754;2023-12-28T13:01:21;21.88;;;4.25;;
33714;SDS011;20043;50.998;4.754;2023-12-28T13:03:47;27.25;;;4.53;;
33714;SDS011;20043;50.998;4.754;2023-12-28T13:06:13;29.23;;;4.70;;
33714;SDS011;20043;50.998;4.754;2023-12-28T13:08:39;27.35;;;4.47;;
33714;SDS011;20043;50.998;4.754;2023-12-28T13:11:05;24.98;;;4.25;;
33714;SDS011;20043;50.998;4.754;2023-12-28T13:13:33;27.67;;;4.85;;
33714;SDS011;20043;50.998;4.754;2023-12-28T13:16:00;25.27;;;3.90;;
33714;SDS011;20043;50.998;4.754;2023-12-28T13:18:26;19.85;;;4.13;;
33714;SDS011;20043;50.998;4.754;2023-12-28T13:20:52;20.20;;;3.92;;
33714;SDS011;20043;50.998;4.754;2023-12-28T13:23:17;22.35;;;3.75;;
33714;SDS011;20043;50.998;4.754;2023-12-28T13:25:43;23.33;;;4.00;;
33714;SDS011;20043;50.998;4.754;2023-12-28T13:28:09;27.48;;;4.43;;
33714;SDS011;20043;50.998;4.754;2023-12-28T13:30:35;20.75;;;3.67;;
33714;SDS011;20043;50.998;4.754;2023-12-28T13:33:03;21.27;;;3.92;;
33714;SDS011;20043;50.998;4.754;2023-12-28T13:35:28;16.60;;;3.80;;
33714;SDS011;20043;50.998;4.754;2023-12-28T13:37:54;21.55;;;4.05;;
33714;SDS011;20043;50.998;4.754;2023-12-28T13:40:20;25.75;;;4.47;;
33714;SDS011;20043;50.998;4.754;2023-12-28T13:42:46;21.08;;;3.13;;
33714;SDS011;20043;50.998;4.754;2023-12-28T13:45:11;23.00;;;3.97;;
33714;SDS011;20043;50.998;4.754;2023-12-28T13:47:37;22.17;;;3.70;;
33714;SDS011;20043;50.998;4.754;2023-12-28T13:50:03;17.05;;;3.25;;
33714;SDS011;20043;50.998;4.754;2023-12-28T13:52:31;17.85;;;3.20;;
33714;SDS011;20043;50.998;4.754;2023-12-28T13:54:57;16.10;;;3.60;;
33714;SDS011;20043;50.998;4.754;2023-12-28T13:57:22;21.75;;;4.70;;
33714;SDS011;20043;50.998;4.754;2023-12-28T13:59:48;23.77;;;4.43;;
33714;SDS011;20043;50.998;4.754;2023-12-28T14:02:13;21.33;;;4.05;;
33714;SDS011;20043;50.998;4.754;2023-12-28T14:04:39;24.02;;;4.60;;
33714;SDS011;20043;50.998;4.754;2023-12-28T14:07:05;25.10;;;4.47;;
33714;SDS011;20043;50.998;4.754;2023-12-28T14:09:30;26.80;;;5.22;;
33714;SDS011;20043;50.998;4.754;2023-12-28T14:11:57;24.70;;;4.15;;
33714;SDS011;20043;50.998;4.754;2023-12-28T14:14:23;24.35;;;5.38;;
33714;SDS011;20043;50.998;4.754;2023-12-28T14:16:49;24.95;;;4.43;;
33714;SDS011;20043;50.998;4.754;2023-12-28T14:19:15;18.95;;;3.90;;
33714;SDS011;20043;50.998;4.754;2023-12-28T14:21:40;24.10;;;4.05;;
33714;SDS011;20043;50.998;4.754;2023-12-28T14:24:06;37.03;;;5.68;;
33714;SDS011;20043;50.998;4.754;2023-12-28T14:26:33;21.80;;;3.78;;
33714;SDS011;20043;50.998;4.754;2023-12-28T14:28:59;15.73;;;4.25;;
33714;SDS011;20043;50.998;4.754;2023-12-28T14:31:30;33.97;;;5.55;;
33714;SDS011;20043;50.998;4.754;2023-12-28T14:33:56;28.52;;;7.38;;
33714;SDS011;20043;50.998;4.754;2023-12-28T14:36:35;39.63;;;10.57;;
33714;SDS011;20043;50.998;4.754;2023-12-28T14:39:03;24.50;;;4.50;;
33714;SDS011;20043;50.998;4.754;2023-12-28T14:41:30;24.92;;;4.18;;